Time;durP1;ratioP1;P1;durP2;ratioP2;P2;SDS_P1;SDS_P2;PMS_P1;PMS_P2;Temp;Humidity;BMP_temperature;BMP_pressure;BME280_temperature;BME280_humidity;BME280_pressure;Samples;Min_cycle;Max_cycle;Signal;HPM_P1;HPM_P2
2022/01/12 00:00:28;;;;;;;8.13;4.03;;;;;;;-8.43;57.46;101844.91;1718170;82;21083;-61
2022/01/12 00:02:54;;;;;;;13.98;4.00;;;;;;;-8.46;57.60;101846.55;1736001;82;21039;-61
2022/01/12 00:05:21;;;;;;;10.80;4.20;;;;;;;-8.50;57.73;101845.62;1719276;82;21043;-61
2022/01/12 00:07:51;;;;;;;9.00;4.08;;;;;;;-8.50;57.67;101848.17;1733379;81;21411;-61
2022/01/12 00:10:20;;;;;;;9.83;3.77;;;;;;;-8.48;57.77;101851.61;1732123;82;21071;-61
2022/01/12 00:12:46;;;;;;;7.78;3.83;;;;;;;-8.47;57.66;101860.13;1716826;82;21078;-61
2022/01/12 00:15:14;;;;;;;8.70;4.40;;;;;;;-8.48;57.75;101854.59;1729423;82;20984;-61
2022/01/12 00:17:42;;;;;;;8.45;3.50;;;;;;;-8.45;57.62;101857.22;1734186;82;21064;-61
2022/01/12 00:20:09;;;;;;;10.58;3.55;;;;;;;-8.44;57.49;101858.53;1734304;82;21074;-60
2022/01/12 00:22:38;;;;;;;11.65;4.37;;;;;;;-8.45;57.40;101852.96;1737103;81;21967;-61
2022/01/12 00:33:17;;;;;;;7.70;3.80;;;;;;;-8.36;57.10;101849.70;1723013;82;21067;-61
2022/01/12 00:35:47;;;;;;;6.97;2.72;;;;;;;-8.35;57.14;101854.39;1708174;82;23277;-61
2022/01/12 00:38:14;;;;;;;10.30;3.90;;;;;;;-8.36;57.15;101852.26;1748620;81;21090;-61
2022/01/12 00:40:43;;;;;;;8.03;3.37;;;;;;;-8.34;57.07;101851.02;1731709;82;21047;-61
2022/01/12 00:43:09;;;;;;;9.28;3.65;;;;;;;-8.34;57.02;101853.57;1744409;81;21795;-61
2022/01/12 00:45:41;;;;;;;8.40;3.17;;;;;;;-8.37;56.93;101845.84;1733961;82;21581;-62
2022/01/12 00:48:06;;;;;;;7.33;3.17;;;;;;;-8.38;56.83;101856.48;1724697;82;21104;-61
2022/01/12 00:50:33;;;;;;;10.05;3.45;;;;;;;-8.40;56.79;101849.20;1667365;84;21081;-61
2022/01/12 00:53:00;;;;;;;7.08;3.10;;;;;;;-8.43;56.71;101850.45;1670219;85;21659;-61
2022/01/12 00:55:26;;;;;;;8.70;3.95;;;;;;;-8.46;57.23;101851.65;1728061;80;21079;-61
2022/01/12 00:57:55;;;;;;;8.20;3.45;;;;;;;-8.49;57.42;101853.73;1719507;81;21059;-62
2022/01/12 01:00:21;;;;;;;8.78;3.42;;;;;;;-8.51;57.63;101854.09;1728016;82;21094;-61
2022/01/12 01:02:49;;;;;;;8.45;3.65;;;;;;;-8.57;57.92;101840.33;1730897;82;21106;-61
2022/01/12 01:05:20;;;;;;;6.95;2.52;;;;;;;-8.63;58.15;101856.38;1735454;82;21571;-61
2022/01/12 01:07:45;;;;;;;10.18;3.50;;;;;;;-8.69;58.52;101853.29;1734972;81;21024;-62
2022/01/12 01:10:16;;;;;;;7.50;3.33;;;;;;;-8.73;58.74;101850.63;1734036;81;21043;-61
2022/01/12 01:12:40;;;;;;;6.92;3.30;;;;;;;-8.79;58.57;101862.42;1732162;81;21544;-62
2022/01/12 01:15:13;;;;;;;8.48;3.80;;;;;;;-8.82;58.89;101855.11;1735115;82;21571;-62
2022/01/12 01:25:48;;;;;;;9.63;4.00;;;;;;;-8.99;59.00;101853.44;1717147;81;21198;-62
2022/01/12 01:28:15;;;;;;;5.80;2.67;;;;;;;-9.02;59.48;101853.36;1743809;82;21039;-61
2022/01/12 01:30:43;;;;;;;8.40;3.70;;;;;;;-8.96;59.60;101858.59;1734019;81;21610;-63
2022/01/12 01:33:11;;;;;;;9.58;3.42;;;;;;;-9.03;59.54;101860.13;1709133;82;21506;-61
2022/01/12 01:35:40;;;;;;;7.53;3.20;;;;;;;-9.04;59.70;101858.84;1743187;82;21022;-62
2022/01/12 01:38:07;;;;;;;10.20;3.65;;;;;;;-9.01;59.81;101858.89;1708820;82;21770;-62
2022/01/12 01:40:36;;;;;;;8.90;3.40;;;;;;;-9.02;60.06;101863.14;1746860;82;21090;-62
2022/01/12 01:53:51;;;;;;;11.48;3.35;;;;;;;-9.08;59.36;101876.16;1739759;81;21567;-63
2022/01/12 01:56:19;;;;;;;7.30;3.30;;;;;;;-9.14;59.02;101873.05;1741465;82;21105;-63
2022/01/12 01:58:49;;;;;;;9.55;3.10;;;;;;;-9.22;59.09;101868.17;1742450;82;21378;-64
2022/01/12 02:01:17;;;;;;;9.23;3.27;;;;;;;-9.23;58.85;101866.05;1740578;81;21094;-64
2022/01/12 02:03:45;;;;;;;8.65;3.35;;;;;;;-9.27;58.97;101881.22;1740606;81;21218;-66
2022/01/12 02:06:12;;;;;;;12.90;4.03;;;;;;;-9.29;58.86;101876.08;1740275;81;21035;-63
2022/01/12 02:08:39;;;;;;;7.53;3.50;;;;;;;-9.34;58.61;101870.85;1745167;82;21514;-69
2022/01/12 02:11:08;;;;;;;9.68;2.90;;;;;;;-9.40;58.13;101868.13;1719152;81;21078;-62
2022/01/12 02:13:34;;;;;;;7.15;3.42;;;;;;;-9.37;58.62;101868.64;1742599;82;21039;-63
2022/01/12 02:16:01;;;;;;;10.93;4.62;;;;;;;-9.38;58.97;101874.55;1742567;82;21133;-63
2022/01/12 02:40:34;;;;;;;12.03;4.28;;;;;;;-9.28;59.68;101880.33;1718578;81;21126;-63
2022/01/12 02:43:15;;;;;;;7.58;3.62;;;;;;;-9.28;59.77;101875.23;1730686;82;21515;-62
2022/01/12 02:51:16;;;;;;;7.00;3.50;;;;;;;-9.24;58.51;101874.50;1705098;82;22563;-62
2022/01/12 02:53:41;;;;;;;10.80;4.47;;;;;;;-9.26;58.48;101881.65;1707424;82;21494;-62
2022/01/12 02:56:20;;;;;;;11.65;3.60;;;;;;;-9.35;59.47;101870.39;1718016;82;22451;-62
2022/01/12 02:58:48;;;;;;;10.20;4.12;;;;;;;-9.28;59.93;101878.20;1680331;82;21703;-62
2022/01/12 03:04:04;;;;;;;10.30;3.85;;;;;;;-9.31;59.13;101874.30;1729927;82;21162;-65
2022/01/12 03:06:34;;;;;;;8.15;3.35;;;;;;;-9.31;59.27;101867.92;1731355;82;21312;-62
2022/01/12 03:09:00;;;;;;;9.80;4.90;;;;;;;-9.33;58.87;101866.61;1734571;82;21114;-62
2022/01/12 03:11:28;;;;;;;8.98;3.70;;;;;;;-9.32;58.74;101868.77;1732562;82;21341;-62
2022/01/12 03:13:56;;;;;;;9.33;4.20;;;;;;;-9.33;58.75;101869.16;1732721;80;21058;-62
2022/01/12 03:16:26;;;;;;;9.43;3.85;;;;;;;-9.35;58.93;101864.02;1697308;82;21629;-62
2022/01/12 03:18:56;;;;;;;9.25;4.20;;;;;;;-9.30;59.28;101859.46;1738247;81;21047;-62
2022/01/12 03:21:29;;;;;;;10.32;3.65;;;;;;;-9.27;59.32;101866.77;1717300;82;21071;-62
2022/01/12 03:23:55;;;;;;;10.93;3.67;;;;;;;-9.23;59.55;101864.77;1732361;82;21079;-65
2022/01/12 03:26:23;;;;;;;10.32;4.33;;;;;;;-9.29;58.85;101850.58;1710045;81;21071;-63
2022/01/12 03:28:54;;;;;;;6.75;3.22;;;;;;;-9.34;58.59;101855.55;1730354;81;21569;-62
2022/01/12 03:31:27;;;;;;;10.05;3.80;;;;;;;-9.40;59.22;101865.59;1741902;81;21118;-62
2022/01/12 03:33:58;;;;;;;6.53;3.33;;;;;;;-9.47;59.34;101861.58;1741643;81;21182;-62
2022/01/12 03:36:42;;;;;;;9.05;3.85;;;;;;;-9.49;59.43;101858.14;1715528;81;21098;-62
2022/01/12 03:39:12;;;;;;;13.20;4.20;;;;;;;-9.57;60.72;101863.87;1729676;81;21180;-62
2022/01/12 03:41:43;;;;;;;8.68;3.67;;;;;;;-9.65;60.40;101865.35;1731064;81;21047;-62
2022/01/12 03:44:11;;;;;;;11.12;4.05;;;;;;;-9.71;61.03;101863.94;1726870;81;21062;-63
2022/01/12 03:46:47;;;;;;;9.50;4.20;;;;;;;-9.69;61.28;101861.44;1745078;81;21148;-63
2022/01/12 03:49:11;;;;;;;10.28;3.47;;;;;;;-9.65;60.62;101862.80;1727625;81;21652;-62
2022/01/12 03:51:37;;;;;;;10.70;4.28;;;;;;;-9.62;60.30;101865.86;1747287;80;21145;-62
2022/01/12 03:54:04;;;;;;;9.15;4.33;;;;;;;-9.60;59.77;101866.37;1747024;81;21114;-62
2022/01/12 03:56:30;;;;;;;13.95;4.00;;;;;;;-9.63;59.22;101861.19;1706866;81;21019;-61
2022/01/12 03:58:57;;;;;;;9.98;3.90;;;;;;;-9.70;59.09;101868.19;1747419;81;22900;-62
2022/01/12 04:01:24;;;;;;;9.83;3.67;;;;;;;-9.71;59.17;101875.41;1743985;81;21066;-62
2022/01/12 04:04:00;;;;;;;8.35;4.12;;;;;;;-9.75;59.27;101869.36;1747361;81;21067;-61
2022/01/12 04:09:05;;;;;;;9.55;3.67;;;;;;;-9.80;58.79;101864.95;1734302;81;21110;-60
2022/01/12 04:11:31;;;;;;;8.95;4.00;;;;;;;-9.86;58.38;101864.80;1740961;81;21144;-60
2022/01/12 04:13:58;;;;;;;8.90;4.08;;;;;;;-9.92;58.31;101884.19;1738764;81;21097;-60
2022/01/12 04:16:25;;;;;;;10.20;3.98;;;;;;;-9.95;58.19;101871.75;1711242;81;21089;-62
2022/01/12 04:18:51;;;;;;;10.18;3.65;;;;;;;-9.93;57.51;101873.53;1729558;81;21576;-62
2022/01/12 04:21:25;;;;;;;9.03;3.95;;;;;;;-9.92;57.45;101879.48;1725695;81;21121;-61
2022/01/12 04:23:47;;;;;;;9.95;4.22;;;;;;;-9.93;57.17;101872.68;1746229;81;21085;-62
2022/01/12 04:26:14;;;;;;;9.93;3.92;;;;;;;-9.94;56.55;101873.48;1738741;81;21574;-62
2022/01/12 04:28:42;;;;;;;9.70;4.15;;;;;;;-9.96;56.47;101880.23;1734208;82;21063;-61
2022/01/12 04:31:10;;;;;;;8.23;3.70;;;;;;;-10.05;56.12;101880.84;1733833;82;21118;-62
2022/01/12 04:33:37;;;;;;;9.73;4.33;;;;;;;-10.15;55.69;101872.48;1733360;80;21525;-60
2022/01/12 04:36:05;;;;;;;7.17;3.45;;;;;;;-10.27;55.45;101872.58;1706095;82;21094;-61
2022/01/12 04:38:33;;;;;;;12.18;3.80;;;;;;;-10.32;55.31;101880.52;1729909;82;22234;-61
2022/01/12 04:41:05;;;;;;;8.25;4.28;;;;;;;-10.43;55.29;101873.38;1730502;82;21063;-60
2022/01/12 04:43:33;;;;;;;9.28;3.50;;;;;;;-10.45;55.39;101875.88;1731758;82;21110;-60
2022/01/12 04:50:57;;;;;;;8.80;3.47;;;;;;;-10.55;56.05;101880.23;1732207;82;21116;-62
2022/01/12 04:53:23;;;;;;;8.13;3.70;;;;;;;-10.60;56.49;101888.98;1732883;82;21032;-62
2022/01/12 04:55:50;;;;;;;13.03;5.17;;;;;;;-10.56;56.92;101884.86;1717631;82;21130;-60
2022/01/12 04:58:17;;;;;;;8.93;4.17;;;;;;;-10.55;57.24;101890.41;1734465;82;21717;-59
2022/01/12 05:00:45;;;;;;;12.73;4.55;;;;;;;-10.48;57.45;101891.05;1733718;80;21109;-61
2022/01/12 05:14:00;;;;;;;8.75;4.35;;;;;;;-10.58;56.10;101892.86;1732452;81;21274;-64
2022/01/12 05:16:27;;;;;;;12.23;4.40;;;;;;;-10.67;56.34;101884.13;1731631;82;21063;-60
2022/01/12 05:18:55;;;;;;;10.30;3.98;;;;;;;-10.66;56.76;101890.06;1681562;82;21500;-62
2022/01/12 05:21:23;;;;;;;11.63;4.08;;;;;;;-10.69;56.18;101891.23;1720010;81;21126;-63
2022/01/12 05:23:49;;;;;;;12.30;3.90;;;;;;;-10.78;55.74;101894.36;1734055;81;21126;-62
2022/01/12 05:26:16;;;;;;;10.85;4.58;;;;;;;-10.78;55.64;101889.27;1719790;81;21376;-61
2022/01/12 05:28:43;;;;;;;13.20;4.22;;;;;;;-10.87;55.95;101885.18;1732179;81;21121;-63
2022/01/12 05:31:11;;;;;;;9.35;4.40;;;;;;;-10.90;55.81;101888.89;1705844;82;21046;-64
2022/01/12 05:33:41;;;;;;;11.25;4.15;;;;;;;-10.94;56.27;101888.32;1733279;82;21079;-63
2022/01/12 05:36:07;;;;;;;12.45;3.80;;;;;;;-11.01;56.24;101894.88;1732709;82;21118;-61
2022/01/12 05:38:35;;;;;;;10.82;4.75;;;;;;;-11.05;56.03;101892.65;1732518;82;22588;-61
2022/01/12 05:41:04;;;;;;;9.80;3.92;;;;;;;-11.11;56.05;101896.28;1731623;81;21082;-61
2022/01/12 05:43:33;;;;;;;10.45;3.05;;;;;;;-11.15;56.01;101899.52;1734323;82;21051;-63
2022/01/12 05:46:09;;;;;;;10.40;4.25;;;;;;;-11.15;56.09;101885.55;1732546;82;21154;-62
2022/01/12 05:51:15;;;;;;;10.60;3.80;;;;;;;-11.16;56.66;101895.27;1723538;82;22522;-65
2022/01/12 05:53:42;;;;;;;12.55;4.25;;;;;;;-11.13;56.37;101895.77;1733824;82;21145;-61
2022/01/12 05:56:08;;;;;;;11.73;3.70;;;;;;;-11.13;56.38;101887.72;1720299;81;21094;-60
2022/01/12 05:58:35;;;;;;;7.95;3.52;;;;;;;-11.09;56.16;101895.92;1717974;82;21106;-62
2022/01/12 06:01:02;;;;;;;8.48;4.22;;;;;;;-11.06;56.52;101892.59;1719859;82;21134;-60
2022/01/12 06:03:29;;;;;;;9.93;3.65;;;;;;;-11.05;56.01;101895.20;1734701;82;22104;-60
2022/01/12 06:05:55;;;;;;;8.45;3.37;;;;;;;-11.09;55.89;101893.38;1731600;82;21055;-62
2022/01/12 06:08:22;;;;;;;8.05;3.55;;;;;;;-11.10;55.91;101893.33;1736149;82;21099;-62
2022/01/12 06:10:49;;;;;;;8.50;3.47;;;;;;;-11.12;56.07;101890.73;1737090;81;21139;-62
2022/01/12 06:13:17;;;;;;;10.93;4.55;;;;;;;-11.11;56.33;101896.28;1731666;82;21106;-64
2022/01/12 06:15:46;;;;;;;14.40;4.25;;;;;;;-11.10;56.18;101903.08;1734294;82;21581;-62
2022/01/12 06:18:13;;;;;;;12.07;4.78;;;;;;;-11.07;56.47;101900.64;1734993;82;21142;-64
2022/01/12 06:20:43;;;;;;;8.73;3.70;;;;;;;-11.03;56.25;101906.69;1732029;82;21154;-60
2022/01/12 06:23:13;;;;;;;8.00;3.47;;;;;;;-10.99;56.08;101909.80;1736695;82;21087;-61
2022/01/12 06:25:41;;;;;;;7.75;3.52;;;;;;;-11.03;55.62;101902.88;1722141;81;21169;-60
2022/01/12 06:31:11;;;;;;;7.62;2.75;;;;;;;-11.00;56.02;101905.94;1732652;82;21103;-61
2022/01/12 06:33:47;;;;;;;8.83;2.40;;;;;;;-11.08;55.96;101901.44;1719733;81;21134;-62
2022/01/12 06:36:16;;;;;;;9.70;2.77;;;;;;;-11.13;56.42;101898.30;1732744;82;21058;-62
2022/01/12 06:38:44;;;;;;;6.25;2.65;;;;;;;-11.10;56.53;101898.41;1732942;82;21095;-60
2022/01/12 06:41:11;;;;;;;8.30;3.10;;;;;;;-11.12;56.33;101897.09;1733150;82;21139;-61
2022/01/12 06:43:38;;;;;;;10.63;3.33;;;;;;;-11.07;56.52;101901.06;1731437;82;21118;-62
2022/01/12 06:46:06;;;;;;;6.87;3.15;;;;;;;-11.05;56.49;101899.01;1722514;81;21059;-61
2022/01/12 06:48:34;;;;;;;7.95;3.08;;;;;;;-11.01;56.72;101905.05;1724204;81;21859;-61
2022/01/12 06:51:01;;;;;;;7.80;2.40;;;;;;;-10.99;56.32;101903.45;1734946;82;21067;-62
2022/01/12 06:53:28;;;;;;;7.05;2.40;;;;;;;-10.99;55.71;101901.29;1731913;82;21161;-62
2022/01/12 06:55:56;;;;;;;6.67;2.45;;;;;;;-10.97;55.56;101908.59;1734047;82;21113;-66
2022/01/12 06:58:23;;;;;;;6.35;2.10;;;;;;;-10.94;55.56;101915.91;1725425;81;21558;-61
2022/01/12 07:00:49;;;;;;;6.80;2.30;;;;;;;-10.90;55.22;101910.50;1725740;82;21099;-62
2022/01/12 07:03:17;;;;;;;4.83;1.90;;;;;;;-10.91;55.34;101914.73;1729016;82;21918;-63
2022/01/12 07:05:45;;;;;;;8.15;2.67;;;;;;;-10.94;55.60;101911.20;1732280;81;21105;-63
2022/01/12 07:08:14;;;;;;;6.78;2.85;;;;;;;-10.98;55.72;101916.59;1726970;81;21105;-62
2022/01/12 07:10:41;;;;;;;6.47;2.58;;;;;;;-10.95;55.81;101910.77;1729987;82;21621;-62
2022/01/12 07:13:11;;;;;;;6.67;2.58;;;;;;;-10.97;55.87;101908.17;1733018;81;21031;-62
2022/01/12 07:15:39;;;;;;;6.83;2.40;;;;;;;-10.90;55.78;101903.73;1731955;82;21125;-64
2022/01/12 07:18:06;;;;;;;4.92;2.40;;;;;;;-10.82;55.36;101911.62;1734355;82;21137;-63
2022/01/12 07:20:34;;;;;;;6.20;2.27;;;;;;;-10.85;54.88;101911.52;1732454;82;21349;-62
2022/01/12 07:23:00;;;;;;;8.60;3.55;;;;;;;-10.85;55.15;101914.06;1728015;80;21100;-62
2022/01/12 07:25:26;;;;;;;8.93;3.37;;;;;;;-10.91;55.06;101909.66;1719786;81;21110;-62
2022/01/12 07:27:53;;;;;;;8.70;3.20;;;;;;;-10.87;55.47;101915.28;1736254;82;21525;-62
2022/01/12 07:30:22;;;;;;;11.63;4.35;;;;;;;-10.81;55.49;101913.75;1740814;81;21146;-61
2022/01/12 07:32:48;;;;;;;11.63;4.17;;;;;;;-10.78;55.49;101916.39;1742158;81;21105;-62
2022/01/12 07:35:14;;;;;;;12.50;3.72;;;;;;;-10.70;55.77;101922.17;1742935;82;21061;-62
2022/01/12 07:37:41;;;;;;;9.83;4.03;;;;;;;-10.68;54.79;101925.63;1740357;82;21103;-61
2022/01/12 07:40:08;;;;;;;9.93;3.45;;;;;;;-10.74;54.32;101930.92;1741546;82;21157;-62
2022/01/12 07:42:37;;;;;;;8.85;3.50;;;;;;;-10.79;54.45;101926.09;1741976;81;21094;-61
2022/01/12 07:45:06;;;;;;;7.62;3.55;;;;;;;-10.89;54.87;101916.03;1741956;82;21078;-61
2022/01/12 07:47:33;;;;;;;8.65;3.47;;;;;;;-10.91;55.29;101920.20;1738807;81;21097;-61
2022/01/12 07:49:59;;;;;;;7.53;3.25;;;;;;;-10.90;55.12;101922.80;1740468;81;21063;-62
2022/01/12 07:52:27;;;;;;;9.33;3.47;;;;;;;-10.89;54.87;101924.92;1719612;82;22795;-61
2022/01/12 07:54:53;;;;;;;7.42;3.65;;;;;;;-10.89;53.79;101933.83;1740934;80;21078;-62
2022/01/12 07:57:19;;;;;;;8.23;4.00;;;;;;;-10.86;54.00;101925.03;1735709;80;21012;-63
2022/01/12 07:59:46;;;;;;;9.25;3.77;;;;;;;-10.87;53.65;101933.08;1738301;82;21046;-59
2022/01/12 08:02:12;;;;;;;12.65;4.40;;;;;;;-10.85;53.90;101928.90;1738351;81;21541;-61
2022/01/12 08:04:39;;;;;;;10.25;4.00;;;;;;;-10.78;54.13;101928.69;1745019;82;21074;-62
2022/01/12 08:07:06;;;;;;;7.83;4.22;;;;;;;-10.76;53.75;101929.59;1747544;81;21121;-63
2022/01/12 08:09:32;;;;;;;7.78;3.90;;;;;;;-10.75;53.73;101933.88;1743047;82;21042;-65
2022/01/12 08:11:59;;;;;;;8.03;3.67;;;;;;;-10.77;53.44;101930.84;1722067;81;21118;-64
2022/01/12 08:14:25;;;;;;;11.05;4.05;;;;;;;-10.82;52.59;101920.52;1741064;82;21097;-62
2022/01/12 08:16:52;;;;;;;11.22;3.70;;;;;;;-10.84;52.89;101929.78;1739456;82;21086;-62
2022/01/12 08:19:20;;;;;;;9.88;3.90;;;;;;;-10.97;52.49;101931.47;1742114;81;21568;-63
2022/01/12 08:21:46;;;;;;;10.13;4.60;;;;;;;-11.00;52.74;101932.63;1741734;82;22342;-62
2022/01/12 08:24:13;;;;;;;11.70;4.30;;;;;;;-11.06;52.96;101930.34;1743351;81;21106;-63
2022/01/12 08:26:40;;;;;;;8.65;3.98;;;;;;;-11.08;52.97;101952.28;1740435;82;21607;-63
2022/01/12 08:29:10;;;;;;;9.20;4.55;;;;;;;-11.13;52.93;101937.28;1734381;80;21090;-61
2022/01/12 08:31:36;;;;;;;11.30;4.60;;;;;;;-11.07;53.42;101937.92;1717432;81;21582;-60
2022/01/12 08:34:03;;;;;;;9.55;4.40;;;;;;;-11.02;53.40;101940.20;1695617;82;21117;-62
2022/01/12 08:36:30;;;;;;;9.35;4.12;;;;;;;-11.03;53.29;101925.37;1744822;81;21366;-62
2022/01/12 08:38:57;;;;;;;15.28;5.40;;;;;;;-10.97;53.31;101925.11;1729122;82;21115;-61
2022/01/12 08:41:24;;;;;;;9.33;4.22;;;;;;;-10.95;53.83;101929.83;1732893;81;21472;-64
2022/01/12 08:43:50;;;;;;;10.28;4.53;;;;;;;-10.90;54.02;101930.43;1731242;82;21502;-62
2022/01/12 08:46:17;;;;;;;10.63;4.58;;;;;;;-10.84;53.44;101928.52;1732500;82;21063;-61
2022/01/12 08:48:43;;;;;;;8.95;3.70;;;;;;;-10.83;53.06;101932.77;1722729;81;21052;-62
2022/01/12 08:51:09;;;;;;;10.25;3.95;;;;;;;-10.81;53.04;101929.00;1716807;82;22416;-63
2022/01/12 08:53:36;;;;;;;8.00;3.50;;;;;;;-10.84;52.77;101926.83;1732653;82;21179;-61
2022/01/12 08:56:03;;;;;;;10.65;4.62;;;;;;;-10.86;52.82;101928.46;1731509;82;21993;-63
2022/01/12 08:58:30;;;;;;;7.87;3.45;;;;;;;-10.86;53.18;101925.03;1736065;82;21563;-63
2022/01/12 09:01:00;;;;;;;6.87;3.02;;;;;;;-10.86;53.70;101925.92;1723941;81;21138;-63
2022/01/12 09:03:24;;;;;;;7.12;2.20;;;;;;;-10.81;54.26;101927.31;1727986;80;21090;-64
2022/01/12 09:05:51;;;;;;;7.53;3.30;;;;;;;-10.77;53.76;101916.86;1731480;82;21086;-64
2022/01/12 09:08:17;;;;;;;7.62;3.22;;;;;;;-10.80;52.91;101913.80;1731386;82;21973;-63
2022/01/12 09:10:44;;;;;;;6.33;2.83;;;;;;;-10.70;52.82;101906.91;1679361;83;21071;-61
2022/01/12 09:13:11;;;;;;;9.53;3.62;;;;;;;-10.72;52.76;101907.28;1704628;82;21050;-62
2022/01/12 09:15:37;;;;;;;9.08;3.65;;;;;;;-10.71;52.88;101907.72;1683156;82;21123;-62
2022/01/12 09:18:04;;;;;;;7.92;3.30;;;;;;;-10.62;52.92;101910.09;1706886;82;21538;-62
2022/01/12 09:20:30;;;;;;;7.85;3.05;;;;;;;-10.62;52.97;101903.73;1733908;82;21118;-62
2022/01/12 09:22:57;;;;;;;9.85;3.22;;;;;;;-10.54;53.22;101908.66;1734973;82;21551;-62
2022/01/12 09:25:23;;;;;;;8.58;3.15;;;;;;;-10.46;52.92;101906.80;1720527;82;21138;-61
2022/01/12 09:27:50;;;;;;;8.05;3.30;;;;;;;-10.39;53.06;101909.13;1747726;81;21387;-62
2022/01/12 09:30:18;;;;;;;10.15;3.85;;;;;;;-10.40;52.07;101902.33;1742839;82;21050;-64
2022/01/12 09:32:45;;;;;;;8.58;3.35;;;;;;;-10.49;51.89;101886.77;1739945;80;21134;-61
2022/01/12 09:35:12;;;;;;;7.67;3.33;;;;;;;-10.46;52.19;101897.04;1740771;82;21082;-62
2022/01/12 09:37:39;;;;;;;10.63;4.12;;;;;;;-10.50;52.70;101891.42;1735792;81;21106;-61
2022/01/12 09:40:07;;;;;;;8.83;4.00;;;;;;;-10.41;53.47;101894.64;1720016;82;21038;-62
2022/01/12 09:43:38;;;;;;;8.85;3.27;;;;;;;-10.31;52.50;101887.28;1776214;78;22686;-62
2022/01/12 09:46:04;;;;;;;14.93;4.35;;;;;;;-10.31;52.51;101890.25;1748188;81;21135;-60
2022/01/12 09:48:34;;;;;;;9.40;4.25;;;;;;;-10.28;53.06;101896.28;1727750;80;22566;-61
2022/01/12 09:51:01;;;;;;;7.87;3.55;;;;;;;-10.22;52.84;101886.72;1706236;81;21292;-61
2022/01/12 09:53:32;;;;;;;7.40;3.08;;;;;;;-10.18;52.94;101894.03;1689477;82;21087;-61
2022/01/12 09:56:00;;;;;;;8.20;4.12;;;;;;;-10.17;52.72;101890.64;1694083;82;21104;-61
2022/01/12 09:58:33;;;;;;;10.38;3.77;;;;;;;-10.20;52.52;101893.09;1684879;82;21616;-63
2022/01/12 10:01:02;;;;;;;7.30;3.75;;;;;;;-10.28;52.96;101891.20;1685571;83;21134;-62
2022/01/12 10:03:29;;;;;;;8.28;3.35;;;;;;;-10.30;53.07;101889.02;1695229;82;21091;-61
2022/01/12 10:05:56;;;;;;;9.28;3.15;;;;;;;-10.28;53.63;101890.34;1688962;83;21303;-61
2022/01/12 10:08:22;;;;;;;9.90;3.55;;;;;;;-10.28;53.80;101891.20;1710515;81;21018;-62
2022/01/12 10:11:11;;;;;;;8.35;3.60;;;;;;;-10.24;53.65;101890.02;1707944;81;21128;-63
2022/01/12 10:13:40;;;;;;;8.60;3.75;;;;;;;-10.27;53.89;101877.66;1695280;82;22631;-60
2022/01/12 10:16:13;;;;;;;7.15;2.85;;;;;;;-10.23;53.38;101886.25;1693029;82;21578;-60
2022/01/12 10:18:51;;;;;;;8.23;2.85;;;;;;;-10.19;53.68;101885.51;1706959;82;21056;-60
2022/01/12 10:21:32;;;;;;;5.87;2.40;;;;;;;-10.04;53.53;101882.55;1706100;82;21084;-60
2022/01/12 10:24:03;;;;;;;10.38;3.52;;;;;;;-9.92;52.88;101874.00;1707202;82;21105;-60
2022/01/12 10:26:37;;;;;;;9.60;3.55;;;;;;;-9.85;53.10;101876.30;1709726;82;21203;-61
2022/01/12 10:29:09;;;;;;;9.97;3.57;;;;;;;-9.76;52.14;101872.72;1708508;82;21374;-61
2022/01/12 10:31:56;;;;;;;7.15;3.40;;;;;;;-9.76;52.14;101872.72;1685656;82;21090;-60
2022/01/12 10:34:25;;;;;;;;;;;;;;;-9.78;51.89;101873.52;1710890;82;21078;-61
2022/01/12 10:36:53;;;;;;;9.70;3.52;;;;;;;-9.80;52.03;101874.75;1707971;82;20238;-61
2022/01/12 10:39:22;;;;;;;8.28;3.80;;;;;;;-9.85;52.52;101869.05;1707756;82;21062;-61
2022/01/12 10:42:07;;;;;;;8.98;3.77;;;;;;;-9.85;52.89;101871.21;1704909;82;21102;-60
2022/01/12 10:44:43;;;;;;;8.10;3.55;;;;;;;-9.81;53.02;101867.91;1702760;82;21122;-61
2022/01/12 10:47:17;;;;;;;11.80;4.78;;;;;;;-9.73;53.04;101861.77;1703656;82;22314;-61
2022/01/12 10:49:55;;;;;;;12.33;3.80;;;;;;;-9.66;52.83;101864.92;1701825;82;21138;-61
2022/01/12 10:52:23;;;;;;;9.68;5.10;;;;;;;-9.55;52.10;101858.44;1690663;82;21189;-60
2022/01/12 10:55:08;;;;;;;11.10;4.58;;;;;;;-9.47;51.90;101854.79;1698951;82;21086;-61
2022/01/12 10:57:38;;;;;;;8.68;3.33;;;;;;;-9.39;51.34;101857.55;1702159;82;21341;-61
2022/01/12 11:00:18;;;;;;;10.85;4.37;;;;;;;-9.35;51.67;101861.89;1703498;82;22340;-62
2022/01/12 11:02:57;;;;;;;11.15;3.67;;;;;;;-9.30;51.59;101859.46;1677770;82;21085;-62
2022/01/12 11:05:26;;;;;;;10.43;3.67;;;;;;;-9.28;51.27;101858.66;1684868;83;21096;-62
2022/01/12 11:07:52;;;;;;;11.38;4.30;;;;;;;-9.29;51.53;101859.92;1706034;82;22408;-61
2022/01/12 11:10:20;;;;;;;11.88;5.33;;;;;;;-9.32;51.71;101858.56;1683288;82;22768;-61
2022/01/12 11:12:49;;;;;;;10.25;3.55;;;;;;;-9.29;52.06;101848.45;1709769;82;22515;-61
2022/01/12 11:15:18;;;;;;;8.60;3.50;;;;;;;-9.37;51.22;101845.70;1706833;82;21528;-60
2022/01/12 11:17:47;;;;;;;9.70;4.08;;;;;;;-9.39;51.58;101851.18;1709396;82;21308;-64
2022/01/12 11:20:30;;;;;;;10.05;3.77;;;;;;;-9.45;51.58;101853.55;1691221;84;21071;-64
2022/01/12 11:23:13;;;;;;;9.43;4.55;;;;;;;-9.48;51.37;101855.63;1683666;83;21118;-63
2022/01/12 11:25:47;;;;;;;8.23;3.95;;;;;;;-9.53;51.51;101852.95;1698571;82;21588;-63
2022/01/12 11:28:25;;;;;;;9.15;4.08;;;;;;;-9.49;51.84;101854.31;1699034;82;21145;-65
2022/01/12 11:30:59;;;;;;;10.10;4.70;;;;;;;-9.49;51.71;101856.87;1702739;82;22092;-62
2022/01/12 11:33:37;;;;;;;8.53;4.40;;;;;;;-9.45;51.46;101851.01;1701523;83;21018;-64
2022/01/12 11:36:15;;;;;;;9.70;3.83;;;;;;;-9.47;51.05;101844.59;1710468;82;21058;-62
2022/01/12 11:38:47;;;;;;;8.55;4.65;;;;;;;-9.40;51.68;101839.25;1705819;82;21100;-62
2022/01/12 11:41:14;;;;;;;8.08;4.15;;;;;;;-9.34;52.09;101844.09;1681552;82;21183;-64
2022/01/12 11:44:06;;;;;;;11.03;5.10;;;;;;;-9.20;51.44;101839.74;1694824;83;22423;-63
2022/01/12 11:46:51;;;;;;;10.78;5.20;;;;;;;-9.08;51.50;101841.73;1695357;82;21114;-62
2022/01/12 11:49:35;;;;;;;15.32;5.55;;;;;;;-8.97;50.85;101841.16;1693442;84;21126;-63
2022/01/12 11:52:22;;;;;;;12.18;5.45;;;;;;;-8.90;50.36;101845.98;1675865;83;21680;-63
2022/01/12 11:54:51;;;;;;;12.35;6.15;;;;;;;-8.87;49.97;101843.94;1678402;84;21063;-60
2022/01/12 11:57:20;;;;;;;11.48;4.75;;;;;;;-8.88;50.09;101843.05;1681428;83;21174;-62
2022/01/12 11:59:57;;;;;;;7.78;4.25;;;;;;;-8.94;49.68;101845.48;1682278;83;20982;-62
2022/01/12 12:02:36;;;;;;;8.15;4.00;;;;;;;-9.00;49.91;101832.58;1676583;83;21084;-61
2022/01/12 12:05:12;;;;;;;10.08;4.58;;;;;;;-9.06;50.03;101842.23;1686549;82;21556;-61
2022/01/12 12:07:52;;;;;;;8.83;4.83;;;;;;;-9.15;50.15;101833.06;1720434;80;21581;-61
2022/01/12 12:10:22;;;;;;;10.00;4.53;;;;;;;-9.17;50.31;101835.58;1716975;82;22033;-62
2022/01/12 12:12:54;;;;;;;11.05;4.80;;;;;;;-9.14;50.68;101834.80;1695992;82;21065;-61
2022/01/12 12:15:23;;;;;;;9.58;4.67;;;;;;;-9.07;50.38;101828.16;1691950;84;21050;-62
2022/01/12 12:17:51;;;;;;;10.63;5.60;;;;;;;-9.01;50.15;101822.80;1669411;83;21113;-60
2022/01/12 12:20:20;;;;;;;10.28;5.37;;;;;;;-8.90;50.12;101817.93;1731502;81;21126;-62
2022/01/12 12:22:48;;;;;;;9.03;4.72;;;;;;;-8.76;49.91;101814.41;1718578;80;21856;-63
2022/01/12 12:25:17;;;;;;;8.23;3.72;;;;;;;-8.70;49.11;101822.63;1689583;82;21443;-62
2022/01/12 12:27:48;;;;;;;8.95;4.03;;;;;;;-8.69;49.13;101814.13;1729828;80;21114;-62
2022/01/12 12:30:17;;;;;;;8.58;3.92;;;;;;;-8.78;49.26;101812.24;1734857;80;21511;-61
2022/01/12 12:32:48;;;;;;;12.28;4.45;;;;;;;-8.80;49.32;101822.83;1733584;80;21934;-60
2022/01/12 12:35:18;;;;;;;10.10;4.95;;;;;;;-8.86;49.30;101817.58;1734304;80;21610;-60
2022/01/12 12:38:00;;;;;;;9.58;4.60;;;;;;;-8.88;49.71;101814.99;1731334;80;21587;-61
2022/01/12 12:40:42;;;;;;;8.73;4.37;;;;;;;-8.83;49.70;101820.20;1694969;82;21047;-61
2022/01/12 12:43:24;;;;;;;10.50;4.58;;;;;;;-8.75;49.74;101812.31;1729531;80;21081;-60
2022/01/12 12:46:09;;;;;;;8.00;4.50;;;;;;;-8.68;49.28;101811.61;1691376;82;21732;-60
2022/01/12 12:48:35;;;;;;;14.80;5.70;;;;;;;-8.67;49.07;101808.25;1727033;80;21166;-61
2022/01/12 12:51:14;;;;;;;11.00;4.85;;;;;;;-8.68;49.08;101808.21;1687433;82;21153;-61